Time;durP1;ratioP1;P1;durP2;ratioP2;P2;SDS_P1;SDS_P2;PMS_P1;PMS_P2;Temp;Humidity;BMP_temperature;BMP_pressure;BME280_temperature;BME280_humidity;BME280_pressure;Samples;Min_cycle;Max_cycle;Signal;HPM_P1;HPM_P2
2023/05/02 00:00:13;;;;;;;4.47;2.70;;;;;;;8.86;100.00;101942.63;5021411;28;20527;-73
2023/05/02 00:02:38;;;;;;;3.60;2.40;;;;;;;8.86;100.00;101932.06;5021354;28;20041;-73
2023/05/02 00:05:05;;;;;;;6.03;2.50;;;;;;;8.82;100.00;101934.78;5021277;28;20058;-73
2023/05/02 00:07:31;;;;;;;3.55;2.30;;;;;;;8.82;100.00;101945.34;5020028;28;20041;-74
2023/05/02 00:09:57;;;;;;;4.75;2.20;;;;;;;8.81;100.00;101948.91;5018483;28;20037;-73
2023/05/02 00:12:23;;;;;;;6.53;2.30;;;;;;;8.81;100.00;101937.44;5016464;28;20053;-73
2023/05/02 00:14:49;;;;;;;4.15;2.58;;;;;;;8.80;100.00;101948.91;5019946;28;20047;-73
2023/05/02 00:17:18;;;;;;;3.42;1.95;;;;;;;8.79;100.00;101949.81;5019842;28;20111;-72
2023/05/02 00:19:44;;;;;;;2.38;1.73;;;;;;;8.79;100.00;101955.09;5014741;28;20329;-74
2023/05/02 00:22:09;;;;;;;3.72;1.92;;;;;;;8.74;100.00;101947.28;5019266;28;20747;-74
2023/05/02 00:24:35;;;;;;;5.75;1.80;;;;;;;8.73;100.00;101950.81;5021353;28;20060;-72
2023/05/02 00:27:01;;;;;;;4.03;1.77;;;;;;;8.70;100.00;101956.16;5003180;28;20064;-71
2023/05/02 00:29:26;;;;;;;2.67;1.45;;;;;;;8.67;100.00;101957.06;5019073;28;20057;-73
2023/05/02 00:31:52;;;;;;;5.82;1.85;;;;;;;8.65;100.00;101952.72;5003073;28;20702;-74
2023/05/02 00:34:18;;;;;;;3.20;1.83;;;;;;;8.63;100.00;101955.41;5031095;28;20094;-73
2023/05/02 00:36:43;;;;;;;1.40;1.30;;;;;;;8.62;100.00;101958.06;5016074;28;20524;-73
2023/05/02 00:39:09;;;;;;;3.35;1.45;;;;;;;8.60;100.00;101957.25;5020837;28;20124;-73
2023/05/02 00:41:35;;;;;;;2.00;1.35;;;;;;;8.62;100.00;101964.25;5020054;28;20126;-73
2023/05/02 00:44:00;;;;;;;3.45;1.42;;;;;;;8.61;100.00;101953.69;5023109;28;20048;-73
2023/05/02 00:46:26;;;;;;;2.72;1.20;;;;;;;8.61;100.00;101957.19;5023730;28;20033;-73
2023/05/02 00:48:52;;;;;;;1.98;1.38;;;;;;;8.59;100.00;101958.13;5022161;28;20242;-73
2023/05/02 00:51:18;;;;;;;1.80;1.20;;;;;;;8.58;100.00;101961.66;5017954;28;20120;-73
2023/05/02 00:53:44;;;;;;;2.10;1.42;;;;;;;8.57;100.00;101960.81;5022498;28;20033;-73
2023/05/02 00:56:09;;;;;;;2.78;1.33;;;;;;;8.57;100.00;101963.44;5022836;28;20659;-73
2023/05/02 00:58:36;;;;;;;3.90;1.60;;;;;;;8.59;100.00;101973.97;5018853;28;20086;-73
2023/05/02 01:01:11;;;;;;;2.92;1.40;;;;;;;8.58;100.00;101974.88;5019096;28;21357;-73
2023/05/02 01:03:59;;;;;;;1.88;1.67;;;;;;;8.58;100.00;101994.22;5023015;28;20175;-73
2023/05/02 01:06:36;;;;;;;8.75;2.53;;;;;;;8.58;100.00;101982.78;5021239;28;20956;-73
2023/05/02 01:09:41;;;;;;;7.63;2.20;;;;;;;8.48;100.00;101992.59;5023313;28;20169;-73
2023/05/02 01:12:30;;;;;;;10.20;2.45;;;;;;;8.37;100.00;101995.44;5014225;28;20041;-74
2023/05/02 01:14:57;;;;;;;8.40;2.30;;;;;;;8.28;100.00;101997.34;4988630;28;20768;-73
2023/05/02 01:17:31;;;;;;;10.85;2.40;;;;;;;8.23;100.00;101999.19;5014250;28;20041;-73
2023/05/02 01:20:05;;;;;;;15.73;2.65;;;;;;;8.16;100.00;102010.75;5018329;28;20037;-73
2023/05/02 01:22:31;;;;;;;7.32;2.40;;;;;;;8.10;100.00;102013.47;5014883;28;20616;-73
2023/05/02 01:25:11;;;;;;;7.22;2.47;;;;;;;8.06;100.00;102011.81;5019155;28;20037;-73
2023/05/02 01:27:58;;;;;;;8.27;2.55;;;;;;;7.99;100.00;102021.56;5018106;28;21017;-73
2023/05/02 01:30:27;;;;;;;10.38;1.75;;;;;;;7.94;100.00;102039.22;4999511;28;20110;-76
2023/05/02 01:32:54;;;;;;;8.40;2.47;;;;;;;7.88;100.00;102029.66;5019870;28;20072;-73
2023/05/02 01:35:20;;;;;;;9.32;2.40;;;;;;;7.83;100.00;102037.63;5015576;28;20095;-73
2023/05/02 01:37:47;;;;;;;6.85;2.65;;;;;;;7.78;100.00;102033.34;5015627;28;20119;-73
2023/05/02 01:40:18;;;;;;;6.63;2.70;;;;;;;7.73;100.00;102031.63;5017464;28;20036;-73
2023/05/02 01:42:45;;;;;;;4.07;2.03;;;;;;;7.70;100.00;102042.22;5016833;28;20048;-74
2023/05/02 01:45:11;;;;;;;7.28;2.42;;;;;;;7.66;100.00;102040.50;5016213;28;20036;-73
2023/05/02 01:47:38;;;;;;;5.45;2.17;;;;;;;7.63;100.00;102045.81;5016948;28;20037;-73
2023/05/02 01:50:06;;;;;;;10.88;2.67;;;;;;;7.61;100.00;102064.31;5018705;28;20033;-73
2023/05/02 01:52:32;;;;;;;7.68;2.03;;;;;;;7.59;100.00;102062.56;5015722;28;20408;-73
2023/05/02 01:54:59;;;;;;;9.73;2.67;;;;;;;7.57;100.00;102067.00;5018120;28;20585;-73
2023/05/02 01:57:25;;;;;;;9.90;2.67;;;;;;;7.51;100.00;102060.03;5014819;28;20636;-73
2023/05/02 01:59:52;;;;;;;8.73;2.65;;;;;;;7.48;100.00;102068.84;5018187;28;20041;-73
2023/05/02 02:02:17;;;;;;;5.95;2.78;;;;;;;7.47;100.00;102079.44;5015899;28;20123;-73
2023/05/02 02:04:44;;;;;;;12.00;2.90;;;;;;;7.42;100.00;102084.72;5016800;28;20064;-74
2023/05/02 02:07:12;;;;;;;9.00;2.53;;;;;;;7.39;100.00;102086.53;5012369;28;20040;-73
2023/05/02 02:09:38;;;;;;;5.97;2.55;;;;;;;7.37;100.00;102080.41;5017579;28;20049;-73
2023/05/02 02:12:25;;;;;;;8.43;2.88;;;;;;;7.36;100.00;102097.13;4999667;28;20397;-73
2023/05/02 02:15:14;;;;;;;8.32;3.13;;;;;;;7.34;100.00;102108.56;5015193;28;20040;-73
2023/05/02 02:17:42;;;;;;;11.63;2.88;;;;;;;7.32;100.00;102118.22;5016131;28;20055;-73
2023/05/02 02:20:10;;;;;;;8.35;2.92;;;;;;;7.33;100.00;102111.19;5001524;28;20980;-74
2023/05/02 02:22:38;;;;;;;7.22;2.65;;;;;;;7.29;100.00;102120.00;5014186;28;20057;-74
2023/05/02 02:25:09;;;;;;;8.13;2.85;;;;;;;7.25;100.00;102126.22;5016540;28;20025;-74
2023/05/02 02:27:37;;;;;;;6.00;2.80;;;;;;;7.19;100.00;102127.16;5015781;28;20041;-74
2023/05/02 02:30:03;;;;;;;13.13;3.67;;;;;;;7.15;100.00;102126.31;5012696;28;20057;-73
2023/05/02 02:32:29;;;;;;;6.38;2.60;;;;;;;7.10;100.00;102129.88;5015645;28;20056;-74
2023/05/02 02:34:55;;;;;;;7.75;2.83;;;;;;;7.06;100.00;102129.94;5019749;28;20162;-74
2023/05/02 02:37:26;;;;;;;7.35;2.38;;;;;;;7.03;100.00;102142.25;5018302;28;20227;-74
2023/05/02 02:40:03;;;;;;;8.75;2.80;;;;;;;7.00;100.00;102145.78;5018282;28;20029;-73
2023/05/02 02:42:39;;;;;;;8.13;2.30;;;;;;;6.97;100.00;102150.22;5021748;28;20124;-74
2023/05/02 02:45:21;;;;;;;5.75;1.77;;;;;;;6.94;100.00;102156.38;5020956;28;20144;-74
2023/05/02 02:48:00;;;;;;;8.90;2.80;;;;;;;6.92;100.00;102152.91;5023759;28;20029;-74
2023/05/02 02:50:30;;;;;;;4.70;2.00;;;;;;;6.91;100.00;102151.13;5021635;28;20048;-74
2023/05/02 02:53:01;;;;;;;4.18;2.00;;;;;;;6.91;100.00;102162.53;5017700;28;20562;-73
2023/05/02 02:55:37;;;;;;;8.95;2.28;;;;;;;6.89;100.00;102164.31;5021035;28;20036;-73
2023/05/02 02:58:11;;;;;;;6.07;2.10;;;;;;;6.88;100.00;102166.97;5000833;28;20095;-73
2023/05/02 03:00:37;;;;;;;5.05;2.33;;;;;;;6.87;100.00;102181.88;5019942;28;20086;-74
2023/05/02 03:03:04;;;;;;;4.82;2.17;;;;;;;6.86;100.00;102188.03;5021980;28;20041;-74
2023/05/02 03:05:31;;;;;;;9.30;2.42;;;;;;;6.84;100.00;102192.44;5014868;28;20033;-73
2023/05/02 03:07:58;;;;;;;7.85;2.58;;;;;;;6.82;100.00;102183.69;5020846;28;20037;-74
2023/05/02 03:10:24;;;;;;;8.07;2.50;;;;;;;6.77;100.00;102201.28;5018191;28;20121;-73
2023/05/02 03:12:54;;;;;;;6.20;2.35;;;;;;;6.71;100.00;102194.28;5012039;28;20037;-73
2023/05/02 03:15:32;;;;;;;8.48;2.03;;;;;;;6.67;100.00;102195.22;5018933;28;20029;-74
2023/05/02 03:17:57;;;;;;;8.13;2.88;;;;;;;6.61;100.00;102216.31;5016030;28;20072;-73
2023/05/02 03:20:23;;;;;;;5.97;2.42;;;;;;;6.57;100.00;102204.03;5013440;28;20106;-74
2023/05/02 03:22:48;;;;;;;7.18;2.22;;;;;;;6.55;100.00;102217.22;5012639;28;20097;-73
2023/05/02 03:25:14;;;;;;;6.38;2.10;;;;;;;6.52;100.00;102217.22;5018626;28;20063;-74
2023/05/02 03:27:40;;;;;;;9.38;2.22;;;;;;;6.50;100.00;102221.63;5012483;28;20132;-73
2023/05/02 03:30:06;;;;;;;7.78;2.10;;;;;;;6.49;100.00;102218.13;5014694;28;20052;-74
2023/05/02 03:32:32;;;;;;;3.70;2.20;;;;;;;6.48;100.00;102221.63;5018518;28;20064;-74
2023/05/02 03:34:58;;;;;;;8.52;1.85;;;;;;;6.49;100.00;102225.16;5009881;28;20124;-73
2023/05/02 03:37:24;;;;;;;6.05;2.10;;;;;;;6.49;100.00;102226.00;5016997;28;20745;-74
2023/05/02 03:39:50;;;;;;;7.25;1.92;;;;;;;6.51;100.00;102242.69;5014876;28;20041;-73
2023/05/02 03:42:15;;;;;;;10.80;1.92;;;;;;;6.51;100.00;102244.44;5015188;28;20034;-73
2023/05/02 03:44:41;;;;;;;5.97;1.73;;;;;;;6.51;100.00;102245.31;5015062;28;20382;-73
2023/05/02 03:47:06;;;;;;;7.20;1.50;;;;;;;6.49;100.00;102247.06;5018161;28;20106;-74
2023/05/02 03:49:35;;;;;;;5.75;1.65;;;;;;;6.50;100.00;102261.97;5017440;28;20076;-73
2023/05/02 03:52:01;;;;;;;5.30;1.83;;;;;;;6.48;100.00;102253.22;5018912;28;20496;-74
2023/05/02 03:54:28;;;;;;;3.15;1.52;;;;;;;6.47;100.00;102255.84;5017237;28;20036;-73
2023/05/02 03:56:53;;;;;;;4.25;1.58;;;;;;;6.48;100.00;102257.63;5012719;28;20037;-73
2023/05/02 03:59:19;;;;;;;9.60;1.92;;;;;;;6.47;100.00;102259.38;5010656;28;20071;-73
2023/05/02 04:01:49;;;;;;;5.70;1.70;;;;;;;6.48;100.00;102260.25;5016403;28;20699;-74
2023/05/02 04:04:15;;;;;;;6.90;1.67;;;;;;;6.45;100.00;102262.88;5016731;28;20033;-74
2023/05/02 04:06:40;;;;;;;5.28;1.70;;;;;;;6.44;100.00;102267.28;5019433;28;20029;-73
2023/05/02 04:09:09;;;;;;;9.07;1.95;;;;;;;6.43;100.00;102265.50;5018509;28;20142;-75
2023/05/02 04:11:35;;;;;;;3.08;1.50;;;;;;;6.39;100.00;102277.81;5018574;28;20033;-72
2023/05/02 04:14:01;;;;;;;6.20;1.40;;;;;;;6.35;100.00;102281.34;5022324;28;20065;-73
2023/05/02 04:16:26;;;;;;;7.60;1.50;;;;;;;6.34;100.00;102279.63;5021858;28;20045;-73
2023/05/02 04:18:52;;;;;;;5.03;1.58;;;;;;;6.32;100.00;102289.25;5020300;28;20608;-73
2023/05/02 04:21:18;;;;;;;6.43;1.50;;;;;;;6.30;100.00;102292.75;5026021;28;20500;-73
2023/05/02 04:23:43;;;;;;;2.70;1.20;;;;;;;6.29;100.00;102299.78;5021414;28;20055;-73
2023/05/02 04:26:09;;;;;;;4.70;1.30;;;;;;;6.28;100.00;102305.06;5023438;28;20037;-73
2023/05/02 04:28:35;;;;;;;3.60;1.58;;;;;;;6.24;100.00;102306.81;5015228;28;20119;-73
2023/05/02 04:31:02;;;;;;;4.28;1.67;;;;;;;6.22;100.00;102298.06;5015758;28;20095;-73
2023/05/02 04:33:29;;;;;;;5.15;1.50;;;;;;;6.20;100.00;102297.19;5019402;28;20071;-73
2023/05/02 04:35:54;;;;;;;5.50;1.20;;;;;;;6.21;100.00;102304.22;5020121;28;20121;-73
2023/05/02 04:38:20;;;;;;;4.47;1.40;;;;;;;6.20;100.00;102305.06;5021989;28;20049;-73
2023/05/02 04:40:45;;;;;;;4.85;1.17;;;;;;;6.21;100.00;102312.09;5023569;28;20033;-73
2023/05/02 04:43:11;;;;;;;2.08;1.17;;;;;;;6.21;100.00;102317.38;5022714;28;20041;-73
2023/05/02 04:45:37;;;;;;;2.17;1.33;;;;;;;6.21;100.00;102322.63;5026355;28;20148;-73
2023/05/02 04:48:03;;;;;;;3.03;1.15;;;;;;;6.21;100.00;102323.47;5023130;28;20029;-73
2023/05/02 04:50:28;;;;;;;4.50;1.40;;;;;;;6.20;100.00;102326.09;5025723;28;21951;-73
2023/05/02 04:52:54;;;;;;;1.88;1.33;;;;;;;6.21;100.00;102333.16;5021098;28;20048;-73
2023/05/02 04:55:20;;;;;;;2.60;1.10;;;;;;;6.23;100.00;102334.00;5022368;28;20110;-73
2023/05/02 04:57:45;;;;;;;2.78;1.27;;;;;;;6.23;100.00;102336.63;5021448;28;20069;-73
2023/05/02 05:00:11;;;;;;;3.20;1.30;;;;;;;6.26;100.00;102341.88;5025693;28;20583;-73
2023/05/02 05:02:38;;;;;;;3.50;1.40;;;;;;;6.27;100.00;102343.66;5023512;28;20037;-73
2023/05/02 05:05:04;;;;;;;2.67;1.10;;;;;;;6.29;100.00;102347.13;5022210;28;20030;-74
2023/05/02 05:07:30;;;;;;;2.63;1.50;;;;;;;6.31;100.00;102344.50;5004142;28;20454;-74
2023/05/02 05:09:55;;;;;;;4.88;1.25;;;;;;;6.31;100.00;102358.53;5021128;28;20041;-74
2023/05/02 05:12:21;;;;;;;4.13;1.50;;;;;;;6.33;100.00;102359.38;5017776;28;20565;-74
2023/05/02 05:14:46;;;;;;;3.80;1.38;;;;;;;6.36;100.00;102369.03;5019226;28;20037;-73
2023/05/02 05:17:12;;;;;;;3.75;1.17;;;;;;;6.36;100.00;102375.19;5020862;28;20040;-74
2023/05/02 05:19:38;;;;;;;4.03;1.45;;;;;;;6.36;100.00;102369.91;5023487;28;20037;-74
2023/05/02 05:22:03;;;;;;;3.85;1.45;;;;;;;6.37;100.00;102371.66;5016543;28;20041;-74
2023/05/02 05:24:29;;;;;;;2.65;1.13;;;;;;;6.37;99.81;102373.41;5019371;28;20029;-74
2023/05/02 05:26:54;;;;;;;2.30;1.40;;;;;;;6.36;99.22;102375.19;4999093;28;20138;-73
2023/05/02 05:29:20;;;;;;;3.42;1.20;;;;;;;6.37;100.00;102376.91;5018447;28;20060;-74
2023/05/02 05:31:46;;;;;;;2.38;1.20;;;;;;;6.38;98.46;102372.53;5012795;28;20048;-72
2023/05/02 05:34:13;;;;;;;1.73;1.23;;;;;;;6.38;99.84;102377.81;5018620;28;20043;-71
2023/05/02 05:36:39;;;;;;;11.40;4.45;;;;;;;6.41;100.00;102385.69;5016947;28;21367;-72
2023/05/02 05:39:05;;;;;;;4.63;2.13;;;;;;;6.42;100.00;102389.19;5020992;28;20029;-72
2023/05/02 05:41:31;;;;;;;4.97;1.70;;;;;;;6.42;100.00;102389.19;5016419;28;20037;-72
2023/05/02 05:43:56;;;;;;;3.90;1.35;;;;;;;6.42;100.00;102386.56;5016148;28;20404;-72
2023/05/02 05:46:22;;;;;;;2.13;1.17;;;;;;;6.43;100.00;102393.56;5016847;28;20403;-72
2023/05/02 05:48:47;;;;;;;4.78;1.40;;;;;;;6.46;100.00;102397.06;5015769;28;20145;-72
2023/05/02 05:51:13;;;;;;;4.35;1.40;;;;;;;6.48;100.00;102400.56;5015423;28;20045;-72
2023/05/02 05:53:38;;;;;;;6.28;1.52;;;;;;;6.51;100.00;102399.69;5018043;28;20223;-73
2023/05/02 05:56:11;;;;;;;4.72;1.45;;;;;;;6.54;100.00;102404.91;5015720;28;20037;-72
2023/05/02 05:58:40;;;;;;;3.28;1.65;;;;;;;6.57;100.00;102407.56;4996724;28;20041;-72
2023/05/02 06:01:06;;;;;;;3.30;1.40;;;;;;;6.60;100.00;102412.78;5014405;28;20111;-72
2023/05/02 06:03:31;;;;;;;3.20;1.38;;;;;;;6.63;98.01;102412.81;5018626;28;20641;-74
2023/05/02 06:05:57;;;;;;;2.58;1.40;;;;;;;6.66;100.00;102410.13;5014917;28;20037;-73
2023/05/02 06:08:23;;;;;;;4.18;1.63;;;;;;;6.70;98.13;102426.78;5019939;28;20037;-72
2023/05/02 06:10:48;;;;;;;3.53;1.63;;;;;;;6.72;97.45;102430.31;5018748;28;20103;-73
2023/05/02 06:13:14;;;;;;;4.57;1.60;;;;;;;6.71;96.34;102430.31;5016584;28;20041;-72
2023/05/02 06:15:39;;;;;;;4.55;1.70;;;;;;;6.73;97.35;102436.44;5019214;28;20180;-72
2023/05/02 06:18:05;;;;;;;6.03;1.98;;;;;;;6.74;96.82;102438.19;5015478;28;20045;-72
2023/05/02 06:20:30;;;;;;;3.08;1.48;;;;;;;6.76;97.27;102446.97;5019379;28;20029;-72
2023/05/02 06:22:56;;;;;;;5.00;1.85;;;;;;;6.78;96.99;102445.22;5014615;28;20033;-72
2023/05/02 06:25:21;;;;;;;6.15;1.98;;;;;;;6.82;97.56;102441.69;5014662;28;20542;-72
2023/05/02 06:27:47;;;;;;;4.45;1.60;;;;;;;6.85;95.63;102449.56;5017262;28;20210;-73
2023/05/02 06:30:12;;;;;;;2.10;1.70;;;;;;;6.87;94.34;102449.56;5017163;28;20059;-73
2023/05/02 06:32:38;;;;;;;4.38;1.60;;;;;;;6.90;95.37;102454.81;5019712;28;20048;-73
2023/05/02 06:35:04;;;;;;;4.43;1.95;;;;;;;6.93;94.04;102470.59;5017096;28;20033;-72
2023/05/02 06:37:35;;;;;;;2.58;1.38;;;;;;;6.97;93.23;102458.31;5014589;28;20657;-73
2023/05/02 06:40:01;;;;;;;6.45;1.60;;;;;;;6.99;93.02;102469.69;5016944;28;20041;-73
2023/05/02 06:42:28;;;;;;;5.70;1.60;;;;;;;7.01;93.11;102476.72;5016090;28;20476;-72
2023/05/02 06:44:53;;;;;;;2.95;1.48;;;;;;;7.03;87.00;102476.72;5002420;28;20037;-72
2023/05/02 06:47:20;;;;;;;5.15;1.80;;;;;;;7.06;89.96;102480.22;5015405;28;21231;-74
2023/05/02 06:49:46;;;;;;;2.33;1.30;;;;;;;7.12;89.35;102487.19;5017336;28;21958;-73
2023/05/02 06:52:11;;;;;;;3.67;1.33;;;;;;;7.16;88.60;102494.22;5018730;28;20060;-71
2023/05/02 06:54:38;;;;;;;4.95;1.40;;;;;;;7.19;88.75;102504.72;5019360;28;20033;-71
2023/05/02 06:57:04;;;;;;;2.28;1.50;;;;;;;7.20;88.00;102495.94;5017821;28;20037;-71
2023/05/02 06:59:29;;;;;;;3.40;1.70;;;;;;;7.23;88.06;102496.81;5016580;28;20060;-72
2023/05/02 07:01:55;;;;;;;4.13;1.80;;;;;;;7.26;89.41;102505.59;5018069;28;20025;-72
2023/05/02 07:04:20;;;;;;;5.90;1.60;;;;;;;7.35;92.03;102509.91;5033925;28;20044;-71
2023/05/02 07:06:46;;;;;;;6.50;1.75;;;;;;;7.43;92.91;102513.41;5001808;28;21520;-72
2023/05/02 07:09:11;;;;;;;4.15;1.80;;;;;;;7.48;92.55;102514.22;5018016;28;20045;-71
2023/05/02 07:11:37;;;;;;;6.63;2.15;;;;;;;7.53;91.67;102522.13;5018765;28;20048;-72
2023/05/02 07:14:02;;;;;;;5.07;1.50;;;;;;;7.56;91.25;102526.47;5019011;28;20032;-71
2023/05/02 07:16:28;;;;;;;4.28;1.80;;;;;;;7.57;92.30;102521.22;5019609;28;20040;-72
2023/05/02 07:18:53;;;;;;;4.60;1.80;;;;;;;7.56;92.62;102519.47;5017499;28;20037;-72
2023/05/02 07:21:19;;;;;;;5.63;1.70;;;;;;;7.59;92.80;102524.69;5018004;28;21193;-72
2023/05/02 07:23:45;;;;;;;2.20;1.38;;;;;;;7.68;92.61;102518.50;5019570;28;20078;-77
2023/05/02 07:26:10;;;;;;;3.45;1.60;;;;;;;7.92;89.59;102527.16;5015301;28;22126;-73
2023/05/02 07:28:36;;;;;;;2.78;1.83;;;;;;;8.10;91.58;102539.31;4997998;28;21258;-73
2023/05/02 07:31:02;;;;;;;4.07;1.60;;;;;;;8.11;89.60;102546.34;5019349;28;20160;-73
2023/05/02 07:33:28;;;;;;;6.30;1.88;;;;;;;8.05;89.83;102548.16;5020521;28;20039;-73
2023/05/02 07:35:54;;;;;;;4.63;1.77;;;;;;;7.86;88.41;102554.41;5021694;28;20151;-73
2023/05/02 07:38:20;;;;;;;4.20;1.75;;;;;;;7.76;90.24;102552.75;5017328;28;20032;-73
2023/05/02 07:40:46;;;;;;;3.92;1.75;;;;;;;7.74;92.61;102552.75;4987253;28;20053;-73
2023/05/02 07:43:12;;;;;;;7.57;1.98;;;;;;;7.64;91.88;102556.34;5017792;28;20075;-74
2023/05/02 07:45:38;;;;;;;4.03;1.63;;;;;;;7.59;92.99;102553.69;5022135;28;20123;-73
2023/05/02 07:48:03;;;;;;;3.22;1.38;;;;;;;7.56;92.91;102560.75;5022712;28;20114;-73
2023/05/02 07:50:32;;;;;;;4.60;1.58;;;;;;;7.49;89.98;102554.66;5023816;28;20041;-74
2023/05/02 07:52:57;;;;;;;4.22;1.83;;;;;;;7.45;90.75;102564.34;5023290;28;20579;-73
2023/05/02 07:55:25;;;;;;;4.55;1.85;;;;;;;7.48;92.21;102560.81;5023142;28;20033;-73
2023/05/02 07:57:51;;;;;;;6.15;2.22;;;;;;;7.51;91.36;102558.16;5024637;28;20052;-73
2023/05/02 08:00:18;;;;;;;6.68;1.75;;;;;;;7.56;92.32;102560.75;5017853;28;20044;-73
2023/05/02 08:02:47;;;;;;;3.60;1.73;;;;;;;7.60;90.29;102563.38;5018201;28;20068;-73
2023/05/02 08:05:12;;;;;;;3.83;1.83;;;;;;;7.60;89.39;102557.22;5019702;28;20029;-74
2023/05/02 08:07:38;;;;;;;4.80;1.48;;;;;;;7.61;89.64;102559.84;5018669;28;20040;-72
2023/05/02 08:10:05;;;;;;;3.10;1.65;;;;;;;7.72;91.14;102562.44;5001560;28;22040;-73
2023/05/02 08:12:31;;;;;;;3.08;1.75;;;;;;;7.78;88.12;102565.94;5017244;28;20037;-74
2023/05/02 08:14:56;;;;;;;3.25;1.58;;;;;;;7.81;90.19;102568.53;5016915;28;20025;-73
2023/05/02 08:17:22;;;;;;;2.83;1.20;;;;;;;7.88;89.74;102570.25;5017514;28;20041;-73
2023/05/02 08:19:48;;;;;;;2.45;1.52;;;;;;;7.92;88.76;102581.66;5013630;28;20083;-73
2023/05/02 08:22:13;;;;;;;2.13;1.23;;;;;;;7.96;86.10;102583.38;5003690;28;20058;-72
2023/05/02 08:24:39;;;;;;;2.05;1.20;;;;;;;8.01;84.02;102585.09;5017652;28;20081;-72
2023/05/02 08:27:05;;;;;;;2.92;1.10;;;;;;;8.07;81.76;102588.59;5016769;28;20041;-72
2023/05/02 08:29:32;;;;;;;4.10;1.10;;;;;;;8.12;84.08;102598.22;5016875;28;20063;-72
2023/05/02 08:31:58;;;;;;;3.00;1.40;;;;;;;8.10;83.63;102607.00;4998966;28;20060;-73
2023/05/02 08:34:23;;;;;;;4.80;1.30;;;;;;;8.06;83.86;102614.06;5021898;28;20766;-73
2023/05/02 08:36:49;;;;;;;1.70;1.33;;;;;;;8.05;84.01;102611.47;5019531;28;20070;-73
2023/05/02 08:39:15;;;;;;;4.80;1.40;;;;;;;8.04;84.89;102607.94;5023873;28;20155;-73
2023/05/02 08:41:41;;;;;;;3.25;1.23;;;;;;;8.04;83.97;102612.34;5019485;28;20015;-73
2023/05/02 08:44:06;;;;;;;2.72;1.30;;;;;;;8.05;83.41;102617.59;5018946;28;20068;-73
2023/05/02 08:46:35;;;;;;;2.45;1.20;;;;;;;8.08;82.45;102614.97;5022098;28;20026;-73
2023/05/02 08:49:01;;;;;;;0.95;0.73;;;;;;;8.14;80.37;102620.19;5025761;28;20752;-73
2023/05/02 08:51:28;;;;;;;0.93;0.80;;;;;;;8.21;80.92;102620.13;5024814;28;20033;-73
2023/05/02 08:53:54;;;;;;;2.67;1.00;;;;;;;8.28;81.23;102627.13;5021660;28;20496;-73
2023/05/02 08:56:20;;;;;;;2.38;0.90;;;;;;;8.32;80.69;102630.63;5003514;28;20156;-73
2023/05/02 08:58:46;;;;;;;1.90;0.90;;;;;;;8.35;80.73;102635.88;5019828;28;20033;-73
2023/05/02 09:01:15;;;;;;;1.63;1.10;;;;;;;8.37;80.84;102634.09;5034875;28;20037;-73
2023/05/02 09:03:45;;;;;;;1.80;1.13;;;;;;;8.45;81.00;102627.03;5021133;28;20033;-73
2023/05/02 09:06:16;;;;;;;1.98;1.00;;;;;;;8.51;80.55;102626.97;5022783;28;20585;-73
2023/05/02 09:08:48;;;;;;;3.33;0.93;;;;;;;8.49;79.43;102625.22;5023540;28;20051;-73
2023/05/02 09:11:15;;;;;;;1.30;0.93;;;;;;;8.50;80.44;102626.97;5024364;28;20044;-73
2023/05/02 09:13:43;;;;;;;2.70;1.08;;;;;;;8.51;78.52;102626.09;5022038;28;20025;-73
2023/05/02 09:16:16;;;;;;;5.07;1.10;;;;;;;8.53;80.82;102630.50;5019051;28;20045;-72
2023/05/02 09:18:48;;;;;;;2.92;1.20;;;;;;;8.60;82.21;102639.22;5021774;28;20041;-73
2023/05/02 09:21:19;;;;;;;2.00;1.00;;;;;;;8.61;80.56;102640.13;5021711;28;20039;-74
2023/05/02 09:23:50;;;;;;;3.15;1.10;;;;;;;8.61;79.28;102648.91;5020201;28;20032;-74
2023/05/02 09:26:20;;;;;;;3.95;1.45;;;;;;;8.64;80.69;102640.97;4997844;28;20970;-73
2023/05/02 09:28:50;;;;;;;2.28;1.25;;;;;;;8.76;81.44;102644.41;5001346;28;20069;-73
2023/05/02 09:31:22;;;;;;;4.00;1.40;;;;;;;8.87;81.59;102653.06;5019228;28;21578;-73
2023/05/02 09:33:48;;;;;;;5.30;1.20;;;;;;;8.96;81.65;102650.38;5017567;28;20092;-73
2023/05/02 09:36:15;;;;;;;2.05;0.93;;;;;;;9.00;81.98;102656.50;5019299;28;20037;-73
2023/05/02 09:38:46;;;;;;;3.30;1.20;;;;;;;9.03;79.82;102663.50;5012449;28;20044;-72
2023/05/02 09:41:14;;;;;;;3.42;1.05;;;;;;;9.06;78.58;102661.69;5013981;28;20124;-73
2023/05/02 09:43:40;;;;;;;2.72;0.80;;;;;;;9.15;79.18;102665.16;5013420;28;20394;-73
2023/05/02 09:46:07;;;;;;;2.22;0.77;;;;;;;9.18;77.97;102665.09;5013930;28;20466;-73
2023/05/02 09:48:55;;;;;;;2.13;0.90;;;;;;;9.24;78.13;102659.75;4996029;28;20088;-74
2023/05/02 09:51:21;;;;;;;2.90;1.05;;;;;;;9.28;77.88;102661.50;5009347;28;20041;-73
2023/05/02 09:53:48;;;;;;;1.30;0.82;;;;;;;9.32;78.04;102667.63;5012506;28;20036;-74
2023/05/02 09:56:17;;;;;;;1.52;1.00;;;;;;;9.35;78.20;102672.84;5013197;28;20065;-74
2023/05/02 09:58:43;;;;;;;1.73;0.90;;;;;;;9.35;76.95;102678.16;4997288;28;20051;-74
2023/05/02 10:01:14;;;;;;;1.67;1.05;;;;;;;9.37;77.15;102677.25;5016452;28;20432;-73
2023/05/02 10:03:40;;;;;;;1.05;0.70;;;;;;;9.44;77.92;102678.06;5016179;28;21029;-73
2023/05/02 10:06:08;;;;;;;2.22;0.80;;;;;;;9.43;77.42;102681.56;5016350;28;20488;-73
2023/05/02 10:08:34;;;;;;;1.02;0.90;;;;;;;9.35;76.28;102679.03;5017280;28;20040;-72
2023/05/02 10:11:02;;;;;;;2.10;0.90;;;;;;;9.23;74.68;102681.81;5019082;28;20064;-73
2023/05/02 10:13:31;;;;;;;2.40;0.80;;;;;;;9.19;75.28;102686.25;5006179;28;20084;-73
2023/05/02 10:16:00;;;;;;;3.08;0.98;;;;;;;9.16;74.02;102695.97;5018780;28;20032;-72
2023/05/02 10:18:38;;;;;;;1.30;0.70;;;;;;;9.09;73.24;102692.50;5022825;28;20526;-72
2023/05/02 10:21:10;;;;;;;1.42;0.60;;;;;;;9.20;74.77;102689.75;5018232;28;20037;-72
2023/05/02 10:23:40;;;;;;;2.33;0.98;;;;;;;9.44;74.65;102690.38;5018697;28;20033;-72
2023/05/02 10:26:06;;;;;;;1.30;0.80;;;;;;;9.54;72.09;102685.88;5023083;28;20041;-72
2023/05/02 10:28:32;;;;;;;1.40;0.75;;;;;;;9.71;73.94;102670.69;5017778;28;20090;-72
2023/05/02 10:31:00;;;;;;;0.88;0.80;;;;;;;9.75;67.25;102680.31;5023034;28;20052;-73
2023/05/02 10:33:26;;;;;;;2.38;0.80;;;;;;;9.64;72.32;102677.81;5020572;28;20546;-72
2023/05/02 10:35:51;;;;;;;0.70;0.70;;;;;;;9.64;72.85;102680.47;5020759;28;20041;-72
2023/05/02 10:38:20;;;;;;;2.20;0.70;;;;;;;9.68;72.81;102685.69;5020509;28;20033;-72
2023/05/02 10:40:54;;;;;;;0.60;0.60;;;;;;;9.74;72.72;102690.91;5018613;28;20645;-72
2023/05/02 10:43:24;;;;;;;2.15;0.75;;;;;;;9.82;71.79;102691.72;5019423;28;21991;-72
2023/05/02 10:45:51;;;;;;;4.93;1.10;;;;;;;9.87;73.77;102696.94;5021239;28;20067;-72
2023/05/02 10:48:18;;;;;;;2.28;0.98;;;;;;;9.85;73.92;102707.53;5019257;28;20527;-72
2023/05/02 10:50:50;;;;;;;1.08;0.98;;;;;;;9.87;74.41;102702.22;5019422;28;20508;-72
2023/05/02 10:53:26;;;;;;;2.05;1.00;;;;;;;9.91;71.51;102701.28;5021406;28;20536;-72
2023/05/02 10:56:11;;;;;;;1.88;0.90;;;;;;;9.87;72.96;102707.53;5019234;28;20067;-71
2023/05/02 10:58:37;;;;;;;2.45;0.93;;;;;;;9.87;74.81;102708.38;5020336;28;20082;-72
2023/05/02 11:01:28;;;;;;;3.38;0.93;;;;;;;9.83;74.94;102716.38;5019955;28;20037;-71
2023/05/02 11:04:01;;;;;;;2.60;1.00;;;;;;;9.73;76.41;102712.97;5016037;28;20087;-72
2023/05/02 11:06:34;;;;;;;6.13;1.10;;;;;;;9.62;77.33;102715.75;5018087;28;20036;-72
2023/05/02 11:09:15;;;;;;;1.42;1.00;;;;;;;9.61;77.79;102727.22;5017440;28;20425;-72
2023/05/02 11:11:42;;;;;;;1.85;1.05;;;;;;;9.62;78.68;102718.38;5014827;28;20124;-72
2023/05/02 11:14:09;;;;;;;3.30;0.90;;;;;;;9.61;78.93;102717.53;4998896;28;20040;-72
2023/05/02 11:17:05;;;;;;;2.42;1.00;;;;;;;9.68;79.10;102722.72;5017974;28;20051;-72
2023/05/02 11:19:36;;;;;;;;;;;;;;;9.76;77.87;102715.59;5018596;28;20140;-72
2023/05/02 11:22:25;;;;;;;1.00;0.82;;;;;;;9.72;76.80;102721.81;5019141;28;20423;-73
2023/05/02 11:24:51;;;;;;;3.20;1.02;;;;;;;9.64;78.42;102717.47;5021316;28;20039;-73
2023/05/02 11:27:29;;;;;;;1.20;1.10;;;;;;;9.67;79.25;102716.56;5017466;28;20033;-73
2023/05/02 11:30:05;;;;;;;1.55;1.10;;;;;;;9.69;74.77;102722.72;5019992;28;20057;-72
2023/05/02 11:32:43;;;;;;;2.38;1.00;;;;;;;9.69;76.27;102722.72;5016725;28;20901;-74